Time;durP1;ratioP1;P1;durP2;ratioP2;P2;SDS_P1;SDS_P2;PMS_P1;PMS_P2;Temp;Humidity;BMP_temperature;BMP_pressure;BME280_temperature;BME280_humidity;BME280_pressure;Samples;Min_cycle;Max_cycle;Signal;HPM_P1;HPM_P2
2022/05/24 00:02:06;;;;;;;3.40;1.58;;;24.60;46.50;;;;;;5136714;27;20007;-40
2022/05/24 00:04:32;;;;;;;3.45;1.70;;;24.60;46.50;;;;;;5136770;27;20579;-39
2022/05/24 00:06:58;;;;;;;3.95;1.73;;;24.60;46.40;;;;;;5135190;27;20039;-40
2022/05/24 00:09:25;;;;;;;3.17;1.50;;;24.50;46.30;;;;;;5136452;27;20461;-39
2022/05/24 00:11:51;;;;;;;2.15;1.40;;;24.50;46.30;;;;;;5136164;27;20019;-40
2022/05/24 00:15:19;;;;;;;3.92;1.55;;;24.50;46.30;;;;;;5136243;27;20007;-39
2022/05/24 00:17:03;;;;;;;2.50;1.52;;;24.50;46.20;;;;;;5134965;27;20450;-39
2022/05/24 00:19:28;;;;;;;2.25;1.33;;;24.50;46.10;;;;;;5135340;27;20015;-40
2022/05/24 00:21:55;;;;;;;3.97;1.40;;;24.50;46.10;;;;;;5135834;27;20043;-39
2022/05/24 00:24:22;;;;;;;2.88;1.35;;;24.50;46.10;;;;;;5136213;27;20019;-40
2022/05/24 00:26:47;;;;;;;2.88;1.20;;;24.50;46.60;;;;;;5136128;27;20015;-39
2022/05/24 00:29:13;;;;;;;3.70;1.45;;;24.50;45.90;;;;;;5135989;27;20461;-39
2022/05/24 00:31:40;;;;;;;1.92;1.23;;;24.50;45.70;;;;;;5136043;27;20128;-40
2022/05/24 00:34:07;;;;;;;2.58;1.50;;;24.50;45.70;;;;;;5136267;27;20362;-40
2022/05/24 00:36:32;;;;;;;2.60;1.40;;;24.50;45.80;;;;;;5135912;27;20106;-39
2022/05/24 00:38:59;;;;;;;3.28;1.48;;;24.50;45.80;;;;;;5136182;27;20102;-40
2022/05/24 00:41:30;;;;;;;3.13;1.50;;;24.50;45.80;;;;;;5136200;27;20023;-40
2022/05/24 00:44:01;;;;;;;3.42;1.45;;;24.50;45.70;;;;;;5135080;27;20038;-40
2022/05/24 00:46:42;;;;;;;2.92;1.30;;;24.50;45.60;;;;;;5134871;27;20501;-40
2022/05/24 00:49:46;;;;;;;3.33;1.33;;;24.50;45.60;;;;;;5134446;27;20480;-40
2022/05/24 00:52:16;;;;;;;2.35;1.33;;;24.50;45.50;;;;;;5052328;28;20087;-39
2022/05/24 00:54:44;;;;;;;2.35;1.33;;;24.40;45.40;;;;;;5052351;28;20488;-40
2022/05/24 00:57:28;;;;;;;3.22;1.40;;;24.40;45.40;;;;;;5052199;28;20013;-39
2022/05/24 01:00:15;;;;;;;2.85;1.48;;;24.40;45.50;;;;;;5051192;28;20041;-39
2022/05/24 01:02:45;;;;;;;2.22;1.15;;;24.40;45.30;;;;;;5051716;28;20102;-39
2022/05/24 01:05:11;;;;;;;;;;;24.50;45.10;;;;;;5052289;28;20560;-39
2022/05/24 01:07:38;;;;;;;3.60;1.60;;;24.50;45.00;;;;;;5035222;28;20023;-39
2022/05/24 01:10:11;;;;;;;1.50;1.20;;;24.50;45.00;;;;;;5051846;28;20159;-39
2022/05/24 01:12:39;;;;;;;3.40;1.45;;;24.40;44.90;;;;;;5035168;28;20060;-40
2022/05/24 01:15:06;;;;;;;3.78;1.50;;;24.50;45.00;;;;;;5051542;28;20033;-39
2022/05/24 01:17:32;;;;;;;3.42;1.30;;;24.40;44.90;;;;;;5051368;28;20472;-39
2022/05/24 01:19:58;;;;;;;3.00;1.30;;;24.40;44.90;;;;;;5051692;28;20021;-39
2022/05/24 01:22:54;;;;;;;2.92;1.30;;;24.40;45.00;;;;;;5034524;28;20041;-40
2022/05/24 01:25:57;;;;;;;2.47;1.13;;;24.40;45.00;;;;;;5050647;28;20032;-39
2022/05/24 01:29:04;;;;;;;2.83;1.33;;;24.40;44.90;;;;;;5113575;28;20043;-41
2022/05/24 01:36:59;;;;;;;5.05;1.30;;;24.40;44.90;;;;;;5050952;28;20047;-40
2022/05/24 01:39:26;;;;;;;5.95;1.90;;;24.40;44.80;;;;;;5034154;28;20483;-40
2022/05/24 01:41:51;;;;;;;3.75;1.20;;;24.40;44.80;;;;;;5050404;28;20040;-40
2022/05/24 01:44:21;;;;;;;2.67;1.40;;;24.40;44.70;;;;;;5050738;28;20029;-40
2022/05/24 01:46:50;;;;;;;3.45;1.50;;;24.40;44.80;;;;;;5034495;28;20063;-40
2022/05/24 01:49:21;;;;;;;2.57;1.10;;;24.40;44.80;;;;;;5034010;28;20522;-40
2022/05/24 01:52:11;;;;;;;2.88;1.20;;;24.40;44.90;;;;;;5034374;28;20672;-41
2022/05/24 01:54:45;;;;;;;3.83;1.30;;;24.40;44.80;;;;;;5034232;28;20028;-45
2022/05/24 01:57:21;;;;;;;2.95;1.27;;;24.40;44.90;;;;;;5050626;28;20017;-40
2022/05/24 01:59:49;;;;;;;3.05;1.20;;;24.40;44.90;;;;;;5035014;28;20017;-40
2022/05/24 02:02:14;;;;;;;3.25;1.15;;;24.30;44.80;;;;;;5084224;28;20034;-40
2022/05/24 02:04:40;;;;;;;3.40;1.15;;;24.40;44.80;;;;;;5133061;28;20019;-40
2022/05/24 02:07:08;;;;;;;3.63;1.40;;;24.40;44.60;;;;;;5133738;28;20015;-40
2022/05/24 02:09:36;;;;;;;3.05;1.38;;;24.40;45.20;;;;;;5133402;27;20090;-43
2022/05/24 02:12:05;;;;;;;4.03;1.20;;;24.40;44.60;;;;;;5133150;27;20068;-39
2022/05/24 02:14:40;;;;;;;3.25;1.30;;;24.40;44.70;;;;;;5132658;28;20007;-39
2022/05/24 02:17:13;;;;;;;4.78;1.70;;;24.40;44.70;;;;;;5132279;28;20011;-39
2022/05/24 02:19:42;;;;;;;3.85;1.30;;;24.40;44.50;;;;;;5133957;28;20015;-42
2022/05/24 02:22:11;;;;;;;2.88;1.40;;;24.40;44.70;;;;;;5094343;28;1174351;-42
2022/05/24 02:24:37;;;;;;;3.50;1.37;;;24.30;44.60;;;;;;5136330;28;20024;-43
2022/05/24 02:27:04;;;;;;;2.45;1.20;;;24.30;44.70;;;;;;5137075;28;20257;-40
2022/05/24 02:29:31;;;;;;;2.03;1.10;;;24.30;44.70;;;;;;5137046;27;20090;-40
2022/05/24 02:31:56;;;;;;;2.13;1.13;;;24.30;44.60;;;;;;5136167;27;20011;-39
2022/05/24 02:34:22;;;;;;;3.42;1.60;;;24.30;44.70;;;;;;5135509;28;20393;-45
2022/05/24 02:36:48;;;;;;;1.85;0.85;;;24.30;44.80;;;;;;5135536;28;20466;-43
2022/05/24 02:39:14;;;;;;;4.55;1.50;;;24.30;44.60;;;;;;5135168;28;20072;-39
2022/05/24 02:41:39;;;;;;;2.83;1.10;;;24.30;44.50;;;;;;5134619;27;20027;-48
2022/05/24 02:44:10;;;;;;;2.58;1.10;;;24.30;44.40;;;;;;5134691;28;20023;-39
2022/05/24 02:46:38;;;;;;;2.83;1.10;;;24.30;44.40;;;;;;5134927;27;20007;-40
2022/05/24 02:49:04;;;;;;;3.67;0.90;;;24.30;44.40;;;;;;5134305;28;20018;-40
2022/05/24 02:51:31;;;;;;;2.33;1.20;;;24.30;44.30;;;;;;5135566;27;20362;-42
2022/05/24 02:53:57;;;;;;;2.53;1.00;;;24.30;44.10;;;;;;5134745;28;20015;-41
2022/05/24 02:56:23;;;;;;;2.97;1.20;;;24.30;44.20;;;;;;5135503;27;20043;-39
2022/05/24 02:58:49;;;;;;;4.07;1.38;;;24.30;44.20;;;;;;5136194;28;20041;-41
2022/05/24 03:01:18;;;;;;;2.95;1.30;;;24.30;44.20;;;;;;5135504;28;20028;-41
2022/05/24 03:03:44;;;;;;;3.10;1.03;;;24.30;44.20;;;;;;5135005;27;20004;-40
2022/05/24 03:06:10;;;;;;;3.38;1.30;;;24.30;44.10;;;;;;5134986;27;20019;-40
2022/05/24 03:11:21;;;;;;;2.70;1.20;;;24.30;44.10;;;;;;5135045;28;20480;-39
2022/05/24 03:16:32;;;;;;;2.72;1.10;;;24.30;44.00;;;;;;5133561;28;20037;-40
2022/05/24 03:18:58;;;;;;;2.30;1.17;;;24.30;44.00;;;;;;5134300;28;20030;-44
2022/05/24 03:21:29;;;;;;;2.45;1.00;;;24.30;43.90;;;;;;5134634;27;20075;-40
2022/05/24 03:23:56;;;;;;;2.67;1.05;;;24.20;44.10;;;;;;5138399;27;20072;-40
2022/05/24 03:26:23;;;;;;;4.05;1.10;;;24.20;44.20;;;;;;5136888;27;20016;-39
2022/05/24 03:28:49;;;;;;;2.83;0.90;;;24.20;44.00;;;;;;5137525;27;20031;-40
2022/05/24 03:31:16;;;;;;;3.10;1.00;;;24.20;44.00;;;;;;5136906;27;20491;-39
2022/05/24 03:33:42;;;;;;;2.60;1.00;;;24.20;44.00;;;;;;5136710;27;20030;-43
2022/05/24 03:36:07;;;;;;;2.78;1.00;;;24.20;43.80;;;;;;5118288;27;20016;-42
2022/05/24 03:38:34;;;;;;;3.15;1.10;;;24.20;43.90;;;;;;5135477;27;20531;-44
2022/05/24 03:41:00;;;;;;;3.40;1.20;;;24.20;43.90;;;;;;5136538;27;20064;-39
2022/05/24 03:43:26;;;;;;;2.33;0.82;;;24.20;44.00;;;;;;5135429;27;20415;-39
2022/05/24 03:46:07;;;;;;;2.55;1.05;;;24.20;44.00;;;;;;5135385;27;20136;-40
2022/05/24 03:48:34;;;;;;;2.47;1.00;;;24.20;43.80;;;;;;5136538;27;20008;-40
2022/05/24 03:50:59;;;;;;;3.00;1.25;;;24.20;43.80;;;;;;5136701;27;20019;-42
2022/05/24 03:53:25;;;;;;;3.40;1.17;;;24.20;43.80;;;;;;5137849;27;20386;-41
2022/05/24 03:55:51;;;;;;;1.83;0.77;;;24.20;43.60;;;;;;5138292;27;20019;-40
2022/05/24 03:58:17;;;;;;;4.00;1.02;;;24.20;43.50;;;;;;5137361;27;20015;-41
2022/05/24 04:00:44;;;;;;;2.47;0.95;;;24.20;43.60;;;;;;5137954;27;20069;-40
2022/05/24 04:03:10;;;;;;;2.95;1.00;;;24.20;43.60;;;;;;5137988;27;20015;-40
2022/05/24 04:05:36;;;;;;;3.38;1.10;;;24.20;43.60;;;;;;5137383;27;20435;-39
2022/05/24 04:08:02;;;;;;;1.92;0.90;;;24.20;43.50;;;;;;5136257;27;20023;-39
2022/05/24 04:10:29;;;;;;;4.07;1.13;;;24.20;43.60;;;;;;5137482;27;20097;-40
2022/05/24 04:12:55;;;;;;;3.58;1.02;;;24.20;43.60;;;;;;5137966;27;20056;-40
2022/05/24 04:15:21;;;;;;;2.90;1.08;;;24.20;43.60;;;;;;5137575;27;20042;-39
2022/05/24 04:17:47;;;;;;;3.15;0.93;;;24.20;43.50;;;;;;5137995;27;20053;-39
2022/05/24 04:20:14;;;;;;;2.45;1.10;;;24.10;43.30;;;;;;5137632;27;20046;-39
2022/05/24 04:22:40;;;;;;;4.03;1.20;;;24.20;43.40;;;;;;5136524;27;20031;-39
2022/05/24 04:25:07;;;;;;;3.30;1.00;;;24.20;43.50;;;;;;5137438;27;20018;-39
2022/05/24 04:27:33;;;;;;;3.25;0.93;;;24.20;43.50;;;;;;5135833;27;20086;-39
2022/05/24 04:29:58;;;;;;;4.72;1.17;;;24.20;43.30;;;;;;5136358;27;20050;-40
2022/05/24 04:32:24;;;;;;;3.05;0.90;;;24.20;43.40;;;;;;5136666;27;20065;-40
2022/05/24 04:34:50;;;;;;;2.15;0.93;;;24.20;43.40;;;;;;5135771;27;20024;-43
2022/05/24 04:37:15;;;;;;;2.75;1.08;;;24.10;43.40;;;;;;5137529;27;20055;-40
2022/05/24 04:39:41;;;;;;;3.00;0.90;;;24.20;43.30;;;;;;5136364;27;20019;-40
2022/05/24 04:42:19;;;;;;;4.05;1.20;;;24.10;43.20;;;;;;5137342;27;20011;-44
2022/05/24 04:44:46;;;;;;;2.15;0.88;;;24.10;43.20;;;;;;5136939;27;20106;-40
2022/05/24 04:47:13;;;;;;;2.80;1.10;;;24.10;43.20;;;;;;5137259;27;20007;-42
2022/05/24 04:49:41;;;;;;;5.25;1.15;;;24.20;43.10;;;;;;5137530;27;20495;-39
2022/05/24 04:52:07;;;;;;;2.60;0.85;;;24.30;42.80;;;;;;5137635;27;20019;-40
2022/05/24 04:54:34;;;;;;;3.65;1.10;;;24.40;42.60;;;;;;5138059;27;20069;-39
2022/05/24 04:57:00;;;;;;;3.33;0.90;;;24.60;42.30;;;;;;5137326;27;20102;-39
2022/05/24 04:59:26;;;;;;;2.75;0.85;;;24.80;42.00;;;;;;5136890;27;20051;-39
2022/05/24 05:01:53;;;;;;;3.38;1.25;;;24.90;41.50;;;;;;5136985;27;20039;-40
2022/05/24 05:04:19;;;;;;;2.35;0.70;;;25.00;41.60;;;;;;5136375;27;20018;-40
2022/05/24 05:06:47;;;;;;;3.42;1.00;;;25.20;41.50;;;;;;5135419;27;20072;-39
2022/05/24 05:09:13;;;;;;;2.67;0.82;;;25.20;41.10;;;;;;5135788;27;20075;-40
2022/05/24 05:11:39;;;;;;;2.13;0.77;;;25.40;41.00;;;;;;5135851;27;20019;-39
2022/05/24 05:14:05;;;;;;;2.63;0.98;;;25.40;40.80;;;;;;5135767;27;20023;-40
2022/05/24 05:16:31;;;;;;;2.03;0.88;;;25.50;40.90;;;;;;5134669;27;20102;-40
2022/05/24 05:18:57;;;;;;;3.83;1.50;;;25.60;40.60;;;;;;5134347;27;20031;-39
2022/05/24 05:21:23;;;;;;;2.53;0.90;;;25.70;40.50;;;;;;5135765;27;20048;-40
2022/05/24 05:23:49;;;;;;;2.45;1.10;;;25.70;40.30;;;;;;5117946;27;20011;-42
2022/05/24 05:26:15;;;;;;;2.92;0.90;;;25.80;40.20;;;;;;5134046;27;20015;-41
2022/05/24 05:28:41;;;;;;;2.50;1.08;;;25.90;40.10;;;;;;5117261;27;20039;-42
2022/05/24 05:31:17;;;;;;;3.60;0.95;;;26.00;39.70;;;;;;5134016;27;20507;-38
2022/05/24 05:33:43;;;;;;;3.65;0.98;;;26.10;39.50;;;;;;5134882;27;20092;-37
2022/05/24 05:36:10;;;;;;;2.90;0.88;;;26.20;39.30;;;;;;5133673;27;20095;-37
2022/05/24 05:38:36;;;;;;;2.70;1.00;;;26.40;39.00;;;;;;5133107;27;20027;-38
2022/05/24 05:41:04;;;;;;;2.55;0.90;;;26.40;38.80;;;;;;5135215;27;20477;-38
2022/05/24 05:43:29;;;;;;;3.17;0.80;;;26.60;38.50;;;;;;5133858;27;20020;-39
2022/05/24 05:45:59;;;;;;;2.35;0.80;;;26.80;38.40;;;;;;5136132;27;20023;-38
2022/05/24 05:48:25;;;;;;;2.72;1.10;;;26.80;38.10;;;;;;5135813;27;20007;-38
2022/05/24 05:50:51;;;;;;;2.30;0.80;;;26.90;38.00;;;;;;5135282;27;20020;-39
2022/05/24 05:53:17;;;;;;;2.58;0.90;;;26.90;38.00;;;;;;5135899;27;20026;-44
2022/05/24 05:55:43;;;;;;;2.17;0.82;;;26.80;38.00;;;;;;5135829;27;20098;-42
2022/05/24 05:58:11;;;;;;;2.58;0.90;;;26.80;38.10;;;;;;5138627;27;20560;-39
2022/05/24 06:00:38;;;;;;;1.83;0.70;;;26.90;38.10;;;;;;5120912;27;20038;-42
2022/05/24 06:03:04;;;;;;;3.22;1.05;;;27.00;37.90;;;;;;5137137;27;20008;-38
2022/05/24 06:05:29;;;;;;;2.45;0.75;;;27.00;37.80;;;;;;5137749;27;20104;-38
2022/05/24 06:07:56;;;;;;;1.85;1.05;;;27.10;37.60;;;;;;5137167;27;20019;-40
2022/05/24 06:10:22;;;;;;;2.83;1.02;;;27.10;37.50;;;;;;5137848;27;20016;-35
2022/05/24 06:12:48;;;;;;;2.40;0.82;;;27.10;37.50;;;;;;5136990;28;20110;-37
2022/05/24 06:15:17;;;;;;;2.17;0.88;;;27.10;37.60;;;;;;5134410;28;20023;-36
2022/05/24 06:17:48;;;;;;;2.00;0.80;;;27.10;37.50;;;;;;5134401;28;20027;-37
2022/05/24 06:20:14;;;;;;;1.67;0.63;;;26.90;37.70;;;;;;5133628;27;20027;-36
2022/05/24 06:22:40;;;;;;;2.33;0.90;;;26.80;38.40;;;;;;5131961;28;20031;-37
2022/05/24 06:25:07;;;;;;;3.15;0.90;;;26.60;37.90;;;;;;5114952;28;20023;-37
2022/05/24 06:27:33;;;;;;;14.45;1.25;;;26.40;38.40;;;;;;5132831;28;20068;-41
2022/05/24 06:29:59;;;;;;;12.88;1.85;;;24.80;40.90;;;;;;5134550;28;20007;-38
2022/05/24 06:32:24;;;;;;;13.48;1.60;;;23.90;42.10;;;;;;5132782;28;20018;-38
2022/05/24 06:34:52;;;;;;;6.80;1.20;;;23.40;43.60;;;;;;5133375;28;20107;-39
2022/05/24 06:37:19;;;;;;;8.55;1.10;;;23.10;43.30;;;;;;5133088;28;20034;-36
2022/05/24 06:39:47;;;;;;;6.47;0.80;;;23.00;43.40;;;;;;5132752;28;20106;-42
2022/05/24 06:42:17;;;;;;;8.63;0.90;;;23.00;43.00;;;;;;5134340;27;20039;-37
2022/05/24 06:44:44;;;;;;;9.90;1.65;;;22.60;43.90;;;;;;5133936;27;20027;-37
2022/05/24 06:47:13;;;;;;;3.28;0.70;;;22.50;44.00;;;;;;5132797;28;20141;-38
2022/05/24 06:49:40;;;;;;;5.53;0.75;;;22.40;44.50;;;;;;5132346;28;20022;-38
2022/05/24 06:52:08;;;;;;;4.20;0.85;;;22.50;44.40;;;;;;5132718;28;20094;-38
2022/05/24 06:54:34;;;;;;;5.53;0.95;;;22.70;44.20;;;;;;5133721;27;20015;-38
2022/05/24 06:57:03;;;;;;;2.92;0.80;;;22.50;43.90;;;;;;5135334;27;20375;-39
2022/05/24 07:02:25;;;;;;;4.68;0.70;;;22.70;43.60;;;;;;5137493;27;20088;-38
2022/05/24 07:04:58;;;;;;;4.13;0.73;;;22.80;43.70;;;;;;5137369;27;20027;-38
2022/05/24 07:07:25;;;;;;;7.78;0.65;;;22.80;43.00;;;;;;5137224;27;20079;-39
2022/05/24 07:09:54;;;;;;;5.32;0.95;;;22.80;43.10;;;;;;5136476;27;20011;-38
2022/05/24 07:12:20;;;;;;;6.43;0.87;;;22.80;43.20;;;;;;5137669;27;20011;-39
2022/05/24 07:14:46;;;;;;;6.07;0.95;;;22.70;43.90;;;;;;5134325;27;20030;-38
2022/05/24 07:17:13;;;;;;;10.18;1.20;;;22.80;43.70;;;;;;5136535;27;20086;-42
2022/05/24 07:19:40;;;;;;;16.15;1.05;;;22.80;44.10;;;;;;5136582;27;20015;-37
2022/05/24 07:22:06;;;;;;;18.70;1.45;;;22.80;43.90;;;;;;5134882;27;20080;-38
2022/05/24 07:24:32;;;;;;;13.13;0.95;;;22.90;43.80;;;;;;5137041;27;20046;-40
2022/05/24 07:26:58;;;;;;;11.27;1.40;;;23.00;43.40;;;;;;5136845;27;20015;-38
2022/05/24 07:29:24;;;;;;;7.22;0.70;;;23.00;43.50;;;;;;5135365;27;20019;-38
2022/05/24 07:31:50;;;;;;;8.75;1.20;;;22.80;43.00;;;;;;5135059;27;20030;-41
2022/05/24 07:34:15;;;;;;;6.38;0.98;;;22.70;43.90;;;;;;5136562;27;20015;-38
2022/05/24 07:36:42;;;;;;;9.98;0.80;;;22.80;43.30;;;;;;5136820;27;20381;-36
2022/05/24 07:39:08;;;;;;;3.55;1.02;;;22.90;42.40;;;;;;5136690;27;20094;-36
2022/05/24 07:47:04;;;;;;;15.48;1.48;;;22.60;42.00;;;;;;5135177;27;20031;-42
2022/05/24 07:49:30;;;;;;;13.23;1.05;;;22.70;41.70;;;;;;5117561;27;20040;-37
2022/05/24 07:51:56;;;;;;;9.13;0.95;;;22.80;41.50;;;;;;5136167;27;20110;-37
2022/05/24 07:54:22;;;;;;;9.18;0.85;;;22.80;41.20;;;;;;5136693;27;20012;-40
2022/05/24 07:56:50;;;;;;;6.03;0.50;;;23.00;41.10;;;;;;5134509;27;20019;-39
2022/05/24 07:59:17;;;;;;;9.07;1.05;;;23.00;40.80;;;;;;5135669;27;20015;-38
2022/05/24 08:01:43;;;;;;;7.05;0.95;;;22.80;41.50;;;;;;5135536;27;20122;-39
2022/05/24 08:04:10;;;;;;;15.45;1.20;;;23.00;41.60;;;;;;5133669;27;20007;-38
2022/05/24 08:06:36;;;;;;;8.80;0.93;;;22.80;42.50;;;;;;5135524;27;20110;-39
2022/05/24 08:09:03;;;;;;;17.08;1.15;;;22.90;42.30;;;;;;5134306;27;20046;-38
2022/05/24 08:11:31;;;;;;;16.98;1.35;;;23.00;42.10;;;;;;5133467;27;20114;-40
2022/05/24 08:14:02;;;;;;;14.95;1.00;;;23.30;41.20;;;;;;5135187;27;20019;-39
2022/05/24 08:16:29;;;;;;;11.02;1.20;;;23.50;40.30;;;;;;5133665;27;20029;-40
2022/05/24 08:18:55;;;;;;;7.68;0.77;;;23.50;39.70;;;;;;5134501;27;20008;-37
2022/05/24 08:21:20;;;;;;;7.82;0.80;;;23.50;39.20;;;;;;5135368;27;20394;-37
2022/05/24 08:23:46;;;;;;;5.20;0.80;;;23.60;38.80;;;;;;5118187;27;20023;-39
2022/05/24 08:26:12;;;;;;;7.10;0.82;;;23.70;38.30;;;;;;5134486;27;20480;-38
2022/05/24 08:28:40;;;;;;;3.45;0.70;;;23.60;38.20;;;;;;5136590;27;20012;-38
2022/05/24 08:31:08;;;;;;;4.05;0.73;;;23.60;38.00;;;;;;5135221;27;20027;-37
2022/05/24 08:33:34;;;;;;;6.03;0.77;;;23.60;38.10;;;;;;5137495;27;20035;-38
2022/05/24 08:36:00;;;;;;;7.82;0.70;;;23.60;37.90;;;;;;5136380;27;20015;-38
2022/05/24 08:38:28;;;;;;;4.47;0.60;;;23.60;37.90;;;;;;5135592;27;20015;-37
2022/05/24 08:40:56;;;;;;;4.07;0.88;;;23.70;37.90;;;;;;5136879;27;20046;-38
2022/05/24 08:43:34;;;;;;;1.85;0.60;;;23.80;37.60;;;;;;5137800;27;20106;-37
2022/05/24 08:49:07;;;;;;;2.63;0.57;;;23.90;37.60;;;;;;5137386;27;20026;-38
2022/05/24 08:51:38;;;;;;;2.88;0.43;;;23.60;37.70;;;;;;5136362;27;20648;-38
2022/05/24 08:54:15;;;;;;;4.25;0.60;;;23.70;37.70;;;;;;5136973;27;20034;-37
2022/05/24 08:56:43;;;;;;;4.13;0.45;;;23.70;37.50;;;;;;5137048;27;20038;-38
2022/05/24 08:59:16;;;;;;;3.28;0.75;;;23.70;37.40;;;;;;5138753;27;20042;-37
2022/05/24 09:01:42;;;;;;;6.68;0.55;;;23.60;37.40;;;;;;5137511;27;20030;-37
2022/05/24 09:04:08;;;;;;;3.20;0.40;;;23.60;37.40;;;;;;5138910;27;20011;-38
2022/05/24 09:06:40;;;;;;;2.78;0.50;;;23.70;37.30;;;;;;5135808;27;20061;-38
2022/05/24 09:09:33;;;;;;;3.05;0.60;;;23.80;37.10;;;;;;5135423;27;20019;-38
2022/05/24 09:12:23;;;;;;;6.43;0.90;;;23.60;38.10;;;;;;5134960;27;20045;-39
2022/05/24 09:15:07;;;;;;;16.25;1.60;;;23.50;38.90;;;;;;5133172;27;20106;-39
2022/05/24 09:17:46;;;;;;;19.65;1.50;;;23.30;40.10;;;;;;5134898;27;20054;-39
2022/05/24 09:20:39;;;;;;;5.47;0.65;;;23.20;40.00;;;;;;5132481;27;20027;-38
2022/05/24 09:23:20;;;;;;;5.25;0.70;;;23.40;39.20;;;;;;5120407;27;20031;-38
2022/05/24 09:25:56;;;;;;;4.00;1.00;;;23.50;39.40;;;;;;5134441;27;20011;-38
2022/05/24 09:28:40;;;;;;;4.35;0.65;;;23.90;38.60;;;;;;5134652;27;20011;-37
2022/05/24 09:31:07;;;;;;;2.67;0.40;;;23.70;38.10;;;;;;5134743;27;20064;-38
2022/05/24 09:33:39;;;;;;;3.10;0.60;;;23.60;38.00;;;;;;5133191;27;20023;-39
2022/05/24 09:36:04;;;;;;;5.20;0.60;;;23.80;38.30;;;;;;5134525;27;20071;-39
2022/05/24 09:38:36;;;;;;;3.67;0.40;;;24.00;37.90;;;;;;5133635;27;20334;-38
2022/05/24 09:41:18;;;;;;;3.03;0.60;;;24.20;36.90;;;;;;5134795;27;20126;-38
2022/05/24 09:43:43;;;;;;;3.67;0.60;;;23.80;37.70;;;;;;5133105;27;20011;-38
2022/05/24 09:46:16;;;;;;;3.58;0.65;;;23.90;37.50;;;;;;5115841;27;20007;-38
2022/05/24 09:49:17;;;;;;;5.63;0.55;;;23.90;37.50;;;;;;5133013;27;20045;-38
2022/05/24 09:51:43;;;;;;;4.25;0.60;;;23.70;38.20;;;;;;5134599;27;20023;-38
2022/05/24 09:54:17;;;;;;;5.88;0.85;;;23.70;37.50;;;;;;5133586;27;20470;-38
2022/05/24 09:57:10;;;;;;;2.50;0.30;;;23.80;37.20;;;;;;5133508;27;20030;-39
2022/05/24 09:59:39;;;;;;;3.55;0.80;;;23.80;37.20;;;;;;5134279;27;20034;-39
2022/05/24 10:02:32;;;;;;;3.60;0.55;;;23.90;36.50;;;;;;5135560;27;20088;-40
2022/05/24 10:05:02;;;;;;;2.42;0.38;;;23.90;36.40;;;;;;5123883;27;20035;-41
2022/05/24 10:07:29;;;;;;;;;;;23.80;36.30;;;;;;5136195;27;20003;-37
2022/05/24 10:10:06;;;;;;;4.55;0.98;;;23.70;36.50;;;;;;5137118;27;20059;-38
2022/05/24 10:12:46;;;;;;;5.78;0.47;;;23.70;36.50;;;;;;5136112;27;20050;-38
2022/05/24 10:15:15;;;;;;;1.60;0.30;;;23.70;36.50;;;;;;5137548;27;20061;-38
2022/05/24 10:17:44;;;;;;;2.33;0.50;;;23.80;36.50;;;;;;5135087;27;20007;-40
2022/05/24 10:20:37;;;;;;;3.35;0.45;;;23.90;36.50;;;;;;5134837;28;20019;-39
2022/05/24 10:23:31;;;;;;;0.70;0.20;;;24.00;36.00;;;;;;5135442;28;20031;-37
2022/05/24 10:26:05;;;;;;;2.03;0.50;;;24.10;35.50;;;;;;5131239;28;20038;-40
2022/05/24 10:29:12;;;;;;;3.10;0.40;;;23.90;36.00;;;;;;5119320;28;20011;-38
2022/05/24 10:38:17;;;;;;;2.55;0.30;;;23.90;36.30;;;;;;5035863;28;20593;-41
2022/05/24 10:38:20;;;;;;;2.53;0.32;;;24.20;36.40;;;;;;5056696;28;20032;-39
2022/05/24 10:41:07;;;;;;;2.72;0.35;;;24.40;36.10;;;;;;5055222;28;20063;-40
2022/05/24 10:44:06;;;;;;;3.58;0.60;;;24.30;36.30;;;;;;5056829;28;20043;-46
2022/05/24 10:47:00;;;;;;;17.70;1.35;;;24.10;35.90;;;;;;5053972;28;20065;-39
2022/05/24 10:49:30;;;;;;;9.88;0.77;;;23.50;37.60;;;;;;5039003;28;20515;-40
2022/05/24 10:52:04;;;;;;;9.75;0.75;;;23.40;37.90;;;;;;5038742;28;20078;-37
2022/05/24 10:54:54;;;;;;;5.85;0.70;;;23.20;37.60;;;;;;5040993;28;20383;-38
2022/05/24 10:57:41;;;;;;;5.20;0.75;;;23.00;38.50;;;;;;5039779;28;20017;-38
2022/05/24 11:00:16;;;;;;;3.58;0.57;;;22.90;39.10;;;;;;5041334;28;20031;-38
2022/05/24 11:03:02;;;;;;;4.75;0.47;;;22.50;39.90;;;;;;5037863;28;20518;-38
2022/05/24 11:05:38;;;;;;;2.67;0.45;;;22.40;40.70;;;;;;5090679;27;20046;-35
2022/05/24 11:08:27;;;;;;;3.70;0.40;;;22.50;41.10;;;;;;5136586;27;20035;-35
2022/05/24 11:10:53;;;;;;;2.95;0.47;;;22.70;41.20;;;;;;5137496;27;20019;-36
2022/05/24 11:13:23;;;;;;;3.72;0.60;;;22.90;40.90;;;;;;5137929;27;20473;-36
2022/05/24 11:15:57;;;;;;;2.17;0.43;;;23.00;40.50;;;;;;5119801;27;20030;-36
2022/05/24 11:18:24;;;;;;;0.82;0.30;;;23.10;40.20;;;;;;5138373;27;20053;-36
2022/05/24 11:21:01;;;;;;;2.30;0.52;;;23.20;39.70;;;;;;5136303;27;20046;-35
2022/05/24 11:23:35;;;;;;;2.78;0.40;;;23.20;39.50;;;;;;5135745;27;20011;-35
2022/05/24 11:26:21;;;;;;;2.03;0.50;;;23.10;40.00;;;;;;5102437;27;20008;-36
2022/05/24 11:28:51;;;;;;;3.22;0.40;;;23.00;40.40;;;;;;5136545;27;20007;-35
2022/05/24 11:31:22;;;;;;;3.78;0.47;;;23.30;39.90;;;;;;5136597;27;20015;-35
2022/05/24 11:33:48;;;;;;;1.58;0.50;;;23.20;40.20;;;;;;5135173;27;20118;-38
2022/05/24 11:36:37;;;;;;;6.95;0.82;;;23.20;39.70;;;;;;5135200;27;20023;-39
2022/05/24 11:39:18;;;;;;;1.75;0.40;;;23.30;39.60;;;;;;5135769;27;20027;-38
2022/05/24 11:41:44;;;;;;;2.25;0.45;;;23.30;38.90;;;;;;5135058;27;20084;-40
2022/05/24 11:44:37;;;;;;;1.45;0.38;;;23.30;39.10;;;;;;5135497;27;20019;-38
2022/05/24 11:47:03;;;;;;;13.27;0.73;;;23.20;39.30;;;;;;5137834;27;20094;-39
2022/05/24 11:49:29;;;;;;;3.13;0.40;;;23.20;39.10;;;;;;5136495;27;20019;-39
2022/05/24 11:51:56;;;;;;;1.65;0.32;;;23.30;38.80;;;;;;5136870;27;20045;-40
2022/05/24 11:54:22;;;;;;;3.33;0.40;;;23.50;38.60;;;;;;5136080;27;20015;-39
2022/05/24 11:56:55;;;;;;;2.88;0.60;;;23.70;38.50;;;;;;5136834;27;20023;-36
2022/05/24 11:59:40;;;;;;;4.15;0.40;;;23.80;37.20;;;;;;5136781;27;20041;-39
2022/05/24 12:02:25;;;;;;;3.22;0.32;;;23.80;37.30;;;;;;5137014;27;20130;-38
2022/05/24 12:08:22;;;;;;;4.30;0.60;;;23.50;39.20;;;;;;5138804;27;20096;-38
2022/05/24 12:10:51;;;;;;;3.83;0.60;;;23.60;39.60;;;;;;5127762;27;20050;-38
2022/05/24 12:13:38;;;;;;;5.53;1.08;;;23.80;39.50;;;;;;5136803;27;20018;-37
2022/05/24 12:16:26;;;;;;;3.90;0.77;;;23.80;40.30;;;;;;5136624;27;20030;-36
2022/05/24 12:18:59;;;;;;;2.50;0.40;;;23.60;42.00;;;;;;5136312;27;20026;-36
2022/05/24 12:21:41;;;;;;;4.28;0.40;;;23.50;42.80;;;;;;5136659;27;20047;-36
2022/05/24 12:24:24;;;;;;;2.28;0.50;;;23.60;42.90;;;;;;5136789;27;20120;-37
2022/05/24 12:27:27;;;;;;;6.03;0.60;;;23.70;43.00;;;;;;5134458;27;20043;-43
2022/05/24 12:29:58;;;;;;;2.75;0.70;;;23.80;43.20;;;;;;5135429;27;20114;-37
2022/05/24 12:32:25;;;;;;;4.03;0.50;;;23.80;42.90;;;;;;5135917;27;20011;-37
2022/05/24 12:34:51;;;;;;;3.47;0.47;;;23.60;42.80;;;;;;5135536;27;20008;-39
2022/05/24 12:37:30;;;;;;;6.55;0.80;;;23.60;42.70;;;;;;5136105;27;20040;-37
2022/05/24 12:40:19;;;;;;;2.90;0.40;;;23.60;42.50;;;;;;5135748;27;20030;-37
2022/05/24 12:42:55;;;;;;;3.05;0.50;;;23.50;42.10;;;;;;5137919;27;20015;-38
2022/05/24 12:45:43;;;;;;;3.97;0.80;;;23.50;41.90;;;;;;5138179;27;20034;-37
2022/05/24 12:48:17;;;;;;;2.80;0.32;;;23.50;41.50;;;;;;5137118;27;20007;-37
2022/05/24 12:50:43;;;;;;;2.55;0.40;;;23.50;41.30;;;;;;5136896;27;20111;-37
2022/05/24 12:53:10;;;;;;;3.13;0.47;;;23.60;40.80;;;;;;5118683;27;20048;-37
2022/05/24 12:55:56;;;;;;;1.95;0.43;;;23.60;40.50;;;;;;5135314;27;20056;-37
2022/05/24 12:58:33;;;;;;;3.25;0.60;;;23.60;40.70;;;;;;5138354;27;20091;-37
2022/05/24 13:01:20;;;;;;;4.32;0.50;;;23.50;41.30;;;;;;5135818;27;20034;-37
2022/05/24 13:04:27;;;;;;;5.65;0.98;;;23.40;42.00;;;;;;5118944;27;20117;-37
2022/05/24 13:06:53;;;;;;;10.88;1.13;;;23.60;41.80;;;;;;5130960;27;20429;-38
2022/05/24 13:09:21;;;;;;;6.63;0.40;;;23.90;41.80;;;;;;5133873;27;20469;-37
2022/05/24 13:11:52;;;;;;;8.25;0.80;;;24.20;41.10;;;;;;5135690;27;20137;-36
2022/05/24 13:14:37;;;;;;;6.47;0.63;;;24.40;41.20;;;;;;5134232;27;20094;-37
2022/05/24 13:17:07;;;;;;;9.05;1.15;;;24.50;40.80;;;;;;5133534;27;20035;-37
2022/05/24 13:19:58;;;;;;;4.53;0.85;;;24.70;40.60;;;;;;5135152;27;20027;-40
2022/05/24 13:22:51;;;;;;;4.32;0.60;;;24.70;40.50;;;;;;5134617;27;20054;-39
2022/05/24 13:25:25;;;;;;;4.28;0.77;;;24.70;40.40;;;;;;5136606;27;20462;-40
2022/05/24 13:27:58;;;;;;;3.55;0.70;;;24.80;40.20;;;;;;5135844;27;20083;-39
2022/05/24 13:33:37;;;;;;;3.72;0.63;;;24.80;40.00;;;;;;5136057;27;20031;-39
2022/05/24 13:36:22;;;;;;;3.78;0.50;;;24.80;40.00;;;;;;5135025;27;20491;-38
2022/05/24 13:39:02;;;;;;;6.22;0.70;;;24.90;40.00;;;;;;5134252;27;20007;-37
2022/05/24 13:41:37;;;;;;;3.95;0.60;;;24.90;40.00;;;;;;5135513;27;20031;-37